Portada
METAR-TAF:

METAR-TAF

Aeroports :

Seül Inchon, Corea del Sud

latitud: 37-28N, longitud: 126-27E, altitud: 7 m

Observació

L'informe es va fer fa 21 minuts, a les 16:30 UTC
Vent 4 kt del Est/Nord-Est
Temperatura -1°C
Humitat 64%
Pressió 1028 hPa
Visibilitat 10 km o més
sense núvols per sota de 1500 mi sense presència de cumulonimbus.

METAR: RKSI 211630Z 06004KT CAVOK M01/M07 Q1028 NOSIG

Hora: 01:51 (16:51 UTC)

Pronòstic

L'informe es va fer fa 5 hores i 51 minuts, a les 11:00 UTC
Pronòstic vàlid del 21 a les 12 UTC al 22 a les 18 UTC
Vent 5 kt del Est
Visibilitat: 6000 m
Escasses núvols a una alçada de 3000 ft
Cel ennuvolat a una alçada de 15000 ft
Evolucionant progressivament
l' 22 a les 01 UTC al 22 a les 02 UTC
Vent 6 kt del Nord-Oest
Evolucionant progressivament
l' 22 a les 11 UTC al 22 a les 12 UTC
Vent 10 kt del Nord-Est

TAF: RKSI 211100Z 2112/2218 10005KT 6000 FEW030 BKN150 TNM01/2121Z TX06/2205Z BECMG 2201/2202 32006KT BECMG 2211/2212 05010KT

Observacions i pronòstics meteorològics de més de 4000 aeroports (METAR i TAF).

Les estacions disponibles són els punts grocs i vermells al mapa.

Posi el ratolí al punt desitjat per veure el nom de l'estació.

Feu clic per veure les observacions i els pronòstics meteorològics.

Per canviar el mapa: feu clic els botons verds amb una creu de color negre per apropar; al botó verd amb un guió per allunyar la imatge; o en les fletxes verdes per a mapes adjacents.


METAR-TAF: